createdAt,value
2023-03-10T00:01:31.302Z,140.49
2023-03-10T00:05:31.415Z,138.39
2023-03-10T00:09:31.520Z,144.33
2023-03-10T00:13:31.549Z,134.79
2023-03-10T00:17:31.783Z,154.12
2023-03-10T00:21:31.853Z,199.60
2023-03-10T00:25:31.901Z,181.39
2023-03-10T00:29:31.985Z,146.94
2023-03-10T00:33:32.140Z,184.16
2023-03-10T00:37:32.274Z,185.64
2023-03-10T00:41:32.488Z,210.03
2023-03-10T00:45:32.566Z,221.40
2023-03-10T00:49:32.699Z,192.51
2023-03-10T00:53:32.860Z,208.91
2023-03-10T00:57:32.978Z,197.65
2023-03-10T01:01:33.059Z,212.88
2023-03-10T01:05:33.140Z,219.72
2023-03-10T01:09:33.266Z,222.06
2023-03-10T01:13:33.409Z,198.10
2023-03-10T01:17:33.466Z,207.77
2023-03-10T01:21:33.651Z,202.04
2023-03-10T01:25:33.780Z,206.90
2023-03-10T01:29:33.892Z,225.41
2023-03-10T01:33:34.018Z,204.60
2023-03-10T01:37:34.110Z,222.42
2023-03-10T01:41:34.211Z,238.05
2023-03-10T01:45:34.302Z,254.68
2023-03-10T01:49:34.460Z,233.82
2023-03-10T01:53:34.614Z,235.09
2023-03-10T01:57:34.711Z,201.17
2023-03-10T02:01:34.870Z,245.61
2023-03-10T02:05:34.930Z,239.30
2023-03-10T02:09:35.055Z,220.86
2023-03-10T02:13:35.257Z,244.46
2023-03-10T02:17:35.332Z,243.88
2023-03-10T02:21:35.436Z,244.79
2023-03-10T02:25:35.589Z,230.39
2023-03-10T02:29:42.655Z,228.70
2023-03-10T02:33:36.690Z,231.38
2023-03-10T02:37:35.626Z,246.77
2023-03-10T02:41:35.602Z,237.64
2023-03-10T02:45:35.736Z,227.19
2023-03-10T02:49:35.856Z,222.31
2023-03-10T02:53:36.049Z,226.55
2023-03-10T02:57:36.150Z,179.58
2023-03-10T03:01:36.269Z,180.07
2023-03-10T03:05:36.398Z,148.11
2023-03-10T03:09:36.511Z,181.87
2023-03-10T03:13:36.622Z,197.66
2023-03-10T03:17:36.710Z,195.86
2023-03-10T03:21:36.794Z,176.23
2023-03-10T03:25:36.948Z,144.01
2023-03-10T03:29:37.101Z,152.70
2023-03-10T03:33:37.262Z,143.72
2023-03-10T03:37:37.387Z,157.10
2023-03-10T03:41:37.535Z,167.50
2023-03-10T03:45:37.647Z,177.84
2023-03-10T03:49:37.816Z,166.94
2023-03-10T03:53:37.961Z,175.74
2023-03-10T03:57:38.026Z,184.41
2023-03-10T04:01:38.122Z,158.92
2023-03-10T04:05:38.297Z,156.76
2023-03-10T04:09:38.424Z,179.48
2023-03-10T04:13:38.497Z,211.96
2023-03-10T04:17:38.637Z,132.78
2023-03-10T04:21:38.819Z,132.47
2023-03-10T04:25:38.936Z,158.27
2023-03-10T04:29:39.053Z,165.89
2023-03-10T04:33:39.141Z,120.78
2023-03-10T04:37:39.247Z,157.93
2023-03-10T04:41:39.414Z,167.83
2023-03-10T04:45:39.497Z,179.11
2023-03-10T04:49:39.662Z,198.43
2023-03-10T04:53:39.769Z,193.24
2023-03-10T04:57:39.853Z,191.25
2023-03-10T05:01:40.023Z,150.91
2023-03-10T05:05:40.190Z,87.16
2023-03-10T05:09:40.222Z,178.56
2023-03-10T05:13:40.381Z,171.31
2023-03-10T05:17:40.543Z,199.54
2023-03-10T05:21:40.631Z,219.63
2023-03-10T05:25:41.404Z,203.95
2023-03-10T05:29:40.899Z,196.72
2023-03-10T05:33:41.052Z,217.09
2023-03-10T05:37:41.109Z,231.32
2023-03-10T05:41:41.204Z,238.67
2023-03-10T05:45:41.409Z,240.35
2023-03-10T05:49:41.525Z,214.64
2023-03-10T05:53:41.667Z,208.81
2023-03-10T05:57:41.808Z,232.82
2023-03-10T06:01:41.871Z,241.06
2023-03-10T06:05:41.908Z,247.09
2023-03-10T06:09:41.996Z,249.50
2023-03-10T06:13:42.076Z,237.27
2023-03-10T06:17:42.207Z,242.29
2023-03-10T06:21:42.365Z,242.06
2023-03-10T06:25:42.449Z,249.46
2023-03-10T06:29:42.565Z,245.33
2023-03-10T06:33:42.675Z,248.49
2023-03-10T06:37:42.944Z,242.79
2023-03-10T06:41:43.516Z,253.75
2023-03-10T06:45:43.548Z,243.59
2023-03-10T06:49:43.544Z,248.86
2023-03-10T06:53:43.512Z,244.62
2023-03-10T06:57:43.455Z,243.68
2023-03-10T07:01:43.966Z,222.02
2023-03-10T07:05:43.706Z,225.40
2023-03-10T07:09:43.895Z,197.11
2023-03-10T07:13:43.954Z,197.15
2023-03-10T07:17:44.464Z,183.78
2023-03-10T07:21:44.210Z,185.58
2023-03-10T07:25:44.316Z,185.86
2023-03-10T07:29:44.444Z,202.15
2023-03-10T07:33:44.963Z,218.59
2023-03-10T07:37:44.757Z,222.20
2023-03-10T07:41:44.807Z,236.58
2023-03-10T07:45:44.900Z,245.61
2023-03-10T07:49:45.018Z,249.33
2023-03-10T07:53:45.116Z,241.70
2023-03-10T07:57:46.006Z,237.00
2023-03-10T08:01:45.304Z,238.48
2023-03-10T08:05:45.429Z,243.01
2023-03-10T08:09:46.057Z,233.86
2023-03-10T08:13:45.669Z,234.36
2023-03-10T08:17:45.813Z,221.38
2023-03-10T08:21:45.931Z,206.80
2023-03-10T08:25:46.083Z,216.53
2023-03-10T08:29:46.239Z,218.70
2023-03-10T08:33:46.415Z,217.99
2023-03-10T08:37:46.486Z,209.78
2023-03-10T08:41:46.955Z,221.16
2023-03-10T08:45:46.718Z,213.89
2023-03-10T08:49:48.917Z,204.84
2023-03-10T08:53:46.989Z,204.83
2023-03-10T08:57:47.188Z,183.10
2023-03-10T09:01:47.370Z,196.99
2023-03-10T09:05:47.359Z,118.82
2023-03-10T09:09:47.512Z,155.07
2023-03-10T09:13:47.648Z,174.58
2023-03-10T09:17:47.722Z,141.29
2023-03-10T09:21:47.759Z,117.84
2023-03-10T09:25:47.883Z,82.05
2023-03-10T09:29:48.151Z,115.92
2023-03-10T09:33:48.433Z,226.61
2023-03-10T09:37:48.217Z,148.20
2023-03-10T09:41:48.381Z,126.01
2023-03-10T09:45:48.476Z,107.36
2023-03-10T09:49:50.629Z,132.39
2023-03-10T09:53:49.716Z,134.61
2023-03-10T09:57:48.472Z,124.17
2023-03-10T10:01:48.451Z,138.54
2023-03-10T10:05:48.424Z,145.80
2023-03-10T10:09:48.391Z,157.04
2023-03-10T10:13:48.327Z,155.34
2023-03-10T10:17:55.208Z,168.74
2023-03-10T10:21:49.295Z,185.72
2023-03-10T10:25:50.280Z,185.62
2023-03-10T10:29:48.207Z,204.88
2023-03-10T10:33:48.488Z,208.38
2023-03-10T10:37:48.428Z,195.46
2023-03-10T10:41:48.596Z,202.34
2023-03-10T10:45:48.753Z,210.64
2023-03-10T10:49:48.820Z,218.55
2023-03-10T10:53:48.951Z,218.65
2023-03-10T10:57:49.059Z,230.19
2023-03-10T11:01:49.217Z,213.18
2023-03-10T11:05:49.341Z,218.21
2023-03-10T11:09:49.436Z,219.50
2023-03-10T11:13:49.555Z,235.35
2023-03-10T11:17:49.704Z,233.33
2023-03-10T11:21:49.828Z,201.77
2023-03-10T11:25:49.924Z,205.47
2023-03-10T11:29:50.062Z,225.15
2023-03-10T11:33:50.131Z,214.76
2023-03-10T11:37:50.278Z,208.22
2023-03-10T11:41:50.436Z,182.56
2023-03-10T11:45:50.528Z,186.43
2023-03-10T11:49:50.693Z,146.84
2023-03-10T11:53:50.857Z,118.00
2023-03-10T11:57:50.917Z,87.15
2023-03-10T12:01:51.032Z,101.63
2023-03-10T12:05:51.224Z,100.20
2023-03-10T12:09:51.267Z,104.36
2023-03-10T12:13:51.348Z,88.79
2023-03-10T12:17:51.571Z,113.10
2023-03-10T12:21:51.582Z,136.56
2023-03-10T12:25:51.672Z,109.69
2023-03-10T12:29:51.835Z,125.77
2023-03-10T12:33:51.933Z,103.54
2023-03-10T12:37:52.083Z,163.54
2023-03-10T12:41:52.242Z,57.21
2023-03-10T12:45:52.341Z,93.09
2023-03-10T12:49:52.478Z,15.54
2023-03-10T12:53:52.592Z,11.65
2023-03-10T12:57:52.747Z,31.89
2023-03-10T13:01:56.220Z,29.58
2023-03-10T13:05:52.891Z,54.79
2023-03-10T13:09:52.889Z,64.02
2023-03-10T13:13:52.842Z,41.47
2023-03-10T13:17:52.834Z,149.53
2023-03-10T13:21:52.745Z,148.76
2023-03-10T13:25:52.706Z,135.88
2023-03-10T13:29:52.686Z,132.20
2023-03-10T13:33:54.092Z,128.56
2023-03-10T13:37:52.619Z,122.69
2023-03-10T13:41:52.587Z,95.46
2023-03-10T13:45:52.549Z,104.81
2023-03-10T13:49:52.464Z,105.90
2023-03-10T13:53:52.564Z,80.03
2023-03-10T13:57:52.721Z,80.04
2023-03-10T14:01:52.925Z,86.38
2023-03-10T14:05:52.944Z,89.49
2023-03-10T14:09:53.115Z,75.00
2023-03-10T14:13:53.288Z,80.04
2023-03-10T14:17:53.303Z,92.24
2023-03-10T14:22:01.670Z,122.41
2023-03-10T14:25:54.425Z,128.39
2023-03-10T14:29:53.391Z,149.87
2023-03-10T14:33:53.333Z,142.85
2023-03-10T14:37:53.459Z,120.73
2023-03-10T14:41:53.643Z,139.06
2023-03-10T14:45:54.009Z,127.42
2023-03-10T14:49:53.965Z,138.98
2023-03-10T14:53:54.072Z,180.58
2023-03-10T14:57:54.212Z,132.61
2023-03-10T15:01:54.492Z,116.39
2023-03-10T15:05:54.514Z,104.31
2023-03-10T15:10:08.921Z,150.72
2023-03-10T15:13:55.643Z,118.57
2023-03-10T15:17:54.640Z,77.53
2023-03-10T15:21:54.597Z,46.04
2023-03-10T15:25:54.715Z,145.82
2023-03-10T15:29:54.844Z,158.33
2023-03-10T15:33:55.022Z,43.94
2023-03-10T15:37:55.166Z,23.52
2023-03-10T15:41:55.256Z,1.10
2023-03-10T15:45:55.427Z,47.51
2023-03-10T15:49:55.507Z,34.42
2023-03-10T15:53:55.638Z,8.67
2023-03-10T15:57:55.725Z,42.17
2023-03-10T16:01:55.939Z,16.24
2023-03-10T16:05:55.947Z,38.10
2023-03-10T16:09:56.085Z,35.90
2023-03-10T16:13:56.166Z,28.47
2023-03-10T16:17:56.290Z,44.50
2023-03-10T16:21:56.391Z,28.08
2023-03-10T16:25:56.568Z,28.57
2023-03-10T16:29:56.615Z,71.24
2023-03-10T16:33:56.671Z,48.34
2023-03-10T16:37:56.832Z,36.55
2023-03-10T16:41:57.030Z,37.53
2023-03-10T16:45:57.057Z,74.01
2023-03-10T16:49:57.201Z,65.29
2023-03-10T16:53:57.301Z,52.84
2023-03-10T16:57:57.464Z,79.71
2023-03-10T17:01:57.584Z,71.86
2023-03-10T17:05:57.682Z,53.80
2023-03-10T17:09:57.788Z,61.80
2023-03-10T17:13:57.866Z,44.08
2023-03-10T17:17:57.936Z,52.92
2023-03-10T17:21:58.064Z,70.95
2023-03-10T17:25:58.735Z,47.52
2023-03-10T17:29:58.339Z,41.42
2023-03-10T17:33:58.441Z,29.75
2023-03-10T17:37:58.578Z,39.88
2023-03-10T17:41:58.676Z,36.89
2023-03-10T17:45:58.770Z,48.17
2023-03-10T17:49:58.805Z,18.85
2023-03-10T17:53:58.944Z,43.22
2023-03-10T17:57:58.987Z,59.52
2023-03-10T18:01:59.124Z,58.99
2023-03-10T18:05:59.211Z,62.57
2023-03-10T18:09:59.340Z,54.11
2023-03-10T18:14:01.710Z,44.62
2023-03-10T18:17:59.419Z,43.00
2023-03-10T18:21:59.422Z,33.21
2023-03-10T18:25:59.365Z,29.52
2023-03-10T18:29:59.338Z,34.09
2023-03-10T18:33:59.284Z,31.69
2023-03-10T18:37:59.267Z,37.87
2023-03-10T18:41:59.259Z,29.03
2023-03-10T18:45:59.339Z,39.25
2023-03-10T18:49:59.182Z,52.10
2023-03-10T18:53:59.095Z,48.59
2023-03-10T18:57:59.074Z,19.13
2023-03-10T19:01:59.181Z,35.39
2023-03-10T19:05:59.111Z,49.02
2023-03-10T19:09:59.242Z,46.34
2023-03-10T19:13:59.431Z,8.30
2023-03-10T19:17:59.480Z,24.45
2023-03-10T19:21:59.615Z,38.03
2023-03-10T19:25:59.796Z,26.37
2023-03-10T19:29:59.927Z,80.83
2023-03-10T19:34:00.016Z,64.37
2023-03-10T19:38:00.142Z,41.00
2023-03-10T19:42:00.278Z,16.70
2023-03-10T19:46:00.362Z,2.80
2023-03-10T19:50:00.527Z,28.99
2023-03-10T19:54:00.597Z,24.75
2023-03-10T19:58:00.717Z,44.72
2023-03-10T20:02:00.816Z,25.65
2023-03-10T20:06:00.896Z,17.59
2023-03-10T20:10:01.019Z,21.96
2023-03-10T20:14:01.129Z,29.83
2023-03-10T20:18:16.132Z,22.07
2023-03-10T20:22:01.317Z,21.67
2023-03-10T20:26:01.229Z,23.33
2023-03-10T20:30:01.181Z,28.06
2023-03-10T20:34:01.146Z,32.75
2023-03-10T20:38:01.119Z,29.81
2023-03-10T20:42:01.094Z,34.08
2023-03-10T20:46:01.104Z,49.20
2023-03-10T20:50:01.032Z,44.83
2023-03-10T20:54:01.011Z,43.25
2023-03-10T20:58:00.979Z,45.21
2023-03-10T21:02:00.903Z,50.22
2023-03-10T21:06:00.883Z,56.82
2023-03-10T21:10:00.836Z,52.69
2023-03-10T21:14:00.805Z,56.30
2023-03-10T21:18:00.815Z,66.63
2023-03-10T21:22:03.291Z,57.29
2023-03-10T21:26:00.737Z,53.93
2023-03-10T21:30:00.663Z,52.16
2023-03-10T21:34:00.634Z,72.13
2023-03-10T21:38:00.619Z,60.08
2023-03-10T21:42:00.571Z,64.55
2023-03-10T21:46:00.556Z,67.37
2023-03-10T21:50:00.468Z,79.62
2023-03-10T21:54:00.435Z,61.67
2023-03-10T21:58:00.419Z,55.75
2023-03-10T22:02:00.372Z,61.16
2023-03-10T22:06:00.345Z,55.00
2023-03-10T22:10:00.293Z,60.94
2023-03-10T22:14:00.238Z,63.98
2023-03-10T22:18:00.222Z,66.91
2023-03-10T22:22:00.191Z,61.73
2023-03-10T22:26:00.209Z,71.40
2023-03-10T22:30:00.336Z,58.26
2023-03-10T22:34:00.506Z,66.43
2023-03-10T22:38:00.672Z,63.10
2023-03-10T22:42:00.839Z,53.01
2023-03-10T22:46:00.954Z,41.45
2023-03-10T22:50:01.038Z,33.92
2023-03-10T22:54:01.138Z,26.81
2023-03-10T22:58:01.245Z,27.86
2023-03-10T23:02:01.419Z,62.81
2023-03-10T23:06:01.511Z,44.18
2023-03-10T23:10:01.588Z,59.75
2023-03-10T23:14:01.807Z,65.89
2023-03-10T23:18:01.913Z,58.22
2023-03-10T23:22:01.980Z,53.85
2023-03-10T23:26:02.109Z,55.15
2023-03-10T23:30:02.259Z,47.56
2023-03-10T23:34:02.440Z,47.63
2023-03-10T23:38:02.583Z,50.14
2023-03-10T23:42:02.822Z,45.94
2023-03-10T23:46:02.922Z,34.87
2023-03-10T23:50:02.982Z,44.15
2023-03-10T23:54:03.089Z,39.72
2023-03-10T23:58:03.196Z,47.37
